createdAt,value
2023-05-19T00:00:14.951Z,0.00
2023-05-19T00:01:15.858Z,0.00
2023-05-19T00:02:14.931Z,0.00
2023-05-19T00:03:15.380Z,0.00
2023-05-19T00:04:15.013Z,0.00
2023-05-19T00:05:14.830Z,0.00
2023-05-19T00:06:15.783Z,0.00
2023-05-19T00:07:15.196Z,0.00
2023-05-19T00:08:14.744Z,0.00
2023-05-19T00:09:15.289Z,0.00
2023-05-19T00:10:14.985Z,0.00
2023-05-19T00:11:16.213Z,0.00
2023-05-19T00:12:15.329Z,0.00
2023-05-19T00:13:14.889Z,0.00
2023-05-19T00:14:14.882Z,0.00
2023-05-19T00:15:14.830Z,0.00
2023-05-19T00:16:15.169Z,0.00
2023-05-19T00:17:14.998Z,0.00
2023-05-19T00:18:14.856Z,0.00
2023-05-19T00:19:14.693Z,0.00
2023-05-19T00:20:14.730Z,0.00
2023-05-19T00:21:15.107Z,0.00
2023-05-19T00:22:14.431Z,0.00
2023-05-19T00:23:14.787Z,0.00
2023-05-19T00:24:14.414Z,0.00
2023-05-19T00:25:15.415Z,0.00
2023-05-19T00:26:15.011Z,0.00
2023-05-19T00:27:15.211Z,0.00
2023-05-19T00:28:14.583Z,0.00
2023-05-19T00:29:14.704Z,0.00
2023-05-19T00:30:14.870Z,0.00
2023-05-19T00:31:14.632Z,0.00
2023-05-19T00:32:14.728Z,0.00
2023-05-19T00:33:14.462Z,0.00
2023-05-19T00:34:14.549Z,0.00
2023-05-19T00:35:15.037Z,0.00
2023-05-19T00:36:14.676Z,0.00
2023-05-19T00:37:14.588Z,0.00
2023-05-19T00:38:24.774Z,0.00
2023-05-19T00:39:14.864Z,0.00
2023-05-19T00:40:14.839Z,0.00
2023-05-19T00:41:24.155Z,0.00
2023-05-19T00:42:14.520Z,0.00
2023-05-19T00:43:16.099Z,0.00
2023-05-19T00:44:14.662Z,0.00
2023-05-19T00:45:14.366Z,0.00
2023-05-19T00:46:14.490Z,0.00
2023-05-19T00:47:14.242Z,0.00
2023-05-19T00:48:14.451Z,0.00
2023-05-19T00:49:14.630Z,0.00
2023-05-19T00:50:18.033Z,0.00
2023-05-19T00:51:14.404Z,0.00
2023-05-19T00:52:14.373Z,0.00
2023-05-19T00:53:14.681Z,0.00
2023-05-19T00:54:14.442Z,0.00
2023-05-19T00:55:14.171Z,0.00
2023-05-19T00:56:13.206Z,0.00
2023-05-19T00:57:13.194Z,0.00
2023-05-19T00:58:13.201Z,0.00
2023-05-19T00:59:13.185Z,0.00
2023-05-19T01:00:13.171Z,0.00
2023-05-19T01:01:13.198Z,0.00
2023-05-19T01:02:13.189Z,0.00
2023-05-19T01:03:13.394Z,0.00
2023-05-19T01:04:13.111Z,0.00
2023-05-19T01:05:13.125Z,0.00
2023-05-19T01:06:13.103Z,0.00
2023-05-19T01:07:13.084Z,0.00
2023-05-19T01:08:13.087Z,0.00
2023-05-19T01:09:13.044Z,0.00
2023-05-19T01:10:13.102Z,0.00
2023-05-19T01:11:13.281Z,0.00
2023-05-19T01:12:13.076Z,0.00
2023-05-19T01:13:13.013Z,0.00
2023-05-19T01:14:12.988Z,0.00
2023-05-19T01:15:12.964Z,0.00
2023-05-19T01:16:13.128Z,0.00
2023-05-19T01:17:12.952Z,0.00
2023-05-19T01:18:12.990Z,0.00
2023-05-19T01:19:12.975Z,0.00
2023-05-19T01:20:12.939Z,0.00
2023-05-19T01:21:12.930Z,0.00
2023-05-19T01:22:12.940Z,0.00
2023-05-19T01:23:12.898Z,0.00
2023-05-19T01:24:12.894Z,0.00
2023-05-19T01:25:12.851Z,0.00
2023-05-19T01:26:12.859Z,0.00
2023-05-19T01:27:12.838Z,0.00
2023-05-19T01:28:12.828Z,0.00
2023-05-19T01:29:12.821Z,0.00
2023-05-19T01:30:12.808Z,0.00
2023-05-19T01:31:12.814Z,0.00
2023-05-19T01:32:12.835Z,0.00
2023-05-19T01:33:12.784Z,0.00
2023-05-19T01:34:12.750Z,0.00
2023-05-19T01:35:12.755Z,0.00
2023-05-19T01:36:12.732Z,0.00
2023-05-19T01:37:12.711Z,0.00
2023-05-19T01:38:12.758Z,0.00
2023-05-19T01:39:12.706Z,0.00
2023-05-19T01:40:15.412Z,0.00
2023-05-19T01:41:12.686Z,0.00
2023-05-19T01:42:12.706Z,0.00
2023-05-19T01:43:12.692Z,0.00
2023-05-19T01:44:12.696Z,0.00
2023-05-19T01:45:12.636Z,0.00
2023-05-19T01:46:12.632Z,0.00
2023-05-19T01:47:12.623Z,0.00
2023-05-19T01:48:12.603Z,0.00
2023-05-19T01:49:12.662Z,0.00
2023-05-19T01:50:12.559Z,0.00
2023-05-19T01:51:12.565Z,0.00
2023-05-19T01:52:12.553Z,0.00
2023-05-19T01:53:12.572Z,0.00
2023-05-19T01:54:12.581Z,0.00
2023-05-19T01:55:12.508Z,0.00
2023-05-19T01:56:12.501Z,0.00
2023-05-19T01:57:12.495Z,0.00
2023-05-19T01:58:12.520Z,0.00
2023-05-19T01:59:12.512Z,0.00
2023-05-19T02:00:12.453Z,0.00
2023-05-19T02:01:12.517Z,0.00
2023-05-19T02:02:12.446Z,0.00
2023-05-19T02:03:12.454Z,0.00
2023-05-19T02:04:12.500Z,0.00
2023-05-19T02:05:12.412Z,0.00
2023-05-19T02:06:12.402Z,0.00
2023-05-19T02:07:12.389Z,0.00
2023-05-19T02:08:12.380Z,0.00
2023-05-19T02:09:12.365Z,0.00
2023-05-19T02:10:12.350Z,0.00
2023-05-19T02:11:12.348Z,0.00
2023-05-19T02:12:12.335Z,0.00
2023-05-19T02:13:12.304Z,0.00
2023-05-19T02:14:12.296Z,0.00
2023-05-19T02:15:12.308Z,0.00
2023-05-19T02:16:12.329Z,0.00
2023-05-19T02:17:12.283Z,0.00
2023-05-19T02:18:12.285Z,0.00
2023-05-19T02:19:12.249Z,0.00
2023-05-19T02:20:12.223Z,0.00
2023-05-19T02:21:12.249Z,0.00
2023-05-19T02:22:12.221Z,0.00
2023-05-19T02:23:12.203Z,0.00
2023-05-19T02:24:12.201Z,0.00
2023-05-19T02:25:12.167Z,0.00
2023-05-19T02:26:12.165Z,0.00
2023-05-19T02:27:12.148Z,0.00
2023-05-19T02:28:12.392Z,0.00
2023-05-19T02:29:12.140Z,0.00
2023-05-19T02:30:12.114Z,0.00
2023-05-19T02:31:12.103Z,0.00
2023-05-19T02:32:12.118Z,0.00
2023-05-19T02:33:12.120Z,0.00
2023-05-19T02:34:12.073Z,0.00
2023-05-19T02:35:12.055Z,0.00
2023-05-19T02:36:12.033Z,0.00
2023-05-19T02:37:12.425Z,0.00
2023-05-19T02:38:12.019Z,0.00
2023-05-19T02:39:12.043Z,0.00
2023-05-19T02:40:12.018Z,0.00
2023-05-19T02:41:11.976Z,0.00
2023-05-19T02:42:12.005Z,0.00
2023-05-19T02:43:11.985Z,0.00
2023-05-19T02:44:11.949Z,0.00
2023-05-19T02:45:12.056Z,0.00
2023-05-19T02:46:11.951Z,0.00
2023-05-19T02:47:12.007Z,0.00
2023-05-19T02:48:11.983Z,0.00
2023-05-19T02:49:11.908Z,0.00
2023-05-19T02:50:11.907Z,0.00
2023-05-19T02:51:11.878Z,0.00
2023-05-19T02:52:11.861Z,0.00
2023-05-19T02:53:11.851Z,0.00
2023-05-19T02:54:11.960Z,0.00
2023-05-19T02:55:11.833Z,0.00
2023-05-19T02:56:11.827Z,0.00
2023-05-19T02:57:11.790Z,0.00
2023-05-19T02:58:11.808Z,0.00
2023-05-19T02:59:11.800Z,0.00
2023-05-19T03:00:11.776Z,0.00
2023-05-19T03:01:11.765Z,0.00
2023-05-19T03:02:11.914Z,0.00
2023-05-19T03:03:11.816Z,0.00
2023-05-19T03:04:11.747Z,0.00
2023-05-19T03:05:11.724Z,0.00
2023-05-19T03:06:14.504Z,0.00
2023-05-19T03:07:11.671Z,0.00
2023-05-19T03:08:11.691Z,0.00
2023-05-19T03:09:11.682Z,0.00
2023-05-19T03:10:11.663Z,0.00
2023-05-19T03:11:11.655Z,0.00
2023-05-19T03:12:11.643Z,0.00
2023-05-19T03:13:11.646Z,0.00
2023-05-19T03:14:11.666Z,0.00
2023-05-19T03:15:11.604Z,0.00
2023-05-19T03:16:11.655Z,0.00
2023-05-19T03:17:11.633Z,0.00
2023-05-19T03:18:11.628Z,0.00
2023-05-19T03:19:11.642Z,0.00
2023-05-19T03:20:11.544Z,0.00
2023-05-19T03:21:11.551Z,0.00
2023-05-19T03:22:11.528Z,0.00
2023-05-19T03:23:11.547Z,0.00
2023-05-19T03:24:11.496Z,0.00
2023-05-19T03:25:11.504Z,0.00
2023-05-19T03:26:11.520Z,0.00
2023-05-19T03:27:11.480Z,0.00
2023-05-19T03:28:11.451Z,0.00
2023-05-19T03:29:11.496Z,0.00
2023-05-19T03:30:11.456Z,0.00
2023-05-19T03:31:11.450Z,5.62
2023-05-19T03:32:11.445Z,5.62
2023-05-19T03:33:11.542Z,5.62
2023-05-19T03:34:11.379Z,5.62
2023-05-19T03:35:11.391Z,5.62
2023-05-19T03:36:11.384Z,5.62
2023-05-19T03:37:11.700Z,5.62
2023-05-19T03:38:11.352Z,5.62
2023-05-19T03:39:11.334Z,5.62
2023-05-19T03:40:11.346Z,11.25
2023-05-19T03:41:11.297Z,11.25
2023-05-19T03:42:11.314Z,11.25
2023-05-19T03:43:11.310Z,11.25
2023-05-19T03:44:11.284Z,11.25
2023-05-19T03:45:11.275Z,11.25
2023-05-19T03:46:11.279Z,16.88
2023-05-19T03:47:11.272Z,16.88
2023-05-19T03:48:11.242Z,16.88
2023-05-19T03:49:11.227Z,16.88
2023-05-19T03:50:11.237Z,16.88
2023-05-19T03:51:11.552Z,22.50
2023-05-19T03:52:11.200Z,22.50
2023-05-19T03:53:11.159Z,22.50
2023-05-19T03:54:11.160Z,22.50
2023-05-19T03:55:11.179Z,28.12
2023-05-19T03:56:11.145Z,28.12
2023-05-19T03:57:11.185Z,28.12
2023-05-19T03:58:11.142Z,28.12
2023-05-19T03:59:11.133Z,33.75
2023-05-19T04:00:11.242Z,33.75
2023-05-19T04:01:11.070Z,33.75
2023-05-19T04:02:11.169Z,39.38
2023-05-19T04:03:11.247Z,39.38
2023-05-19T04:04:11.079Z,39.38
2023-05-19T04:05:11.354Z,45.00
2023-05-19T04:06:11.046Z,45.00
2023-05-19T04:07:11.021Z,45.00
2023-05-19T04:08:11.051Z,45.00
2023-05-19T04:09:11.321Z,50.62
2023-05-19T04:10:11.313Z,50.62
2023-05-19T04:11:11.012Z,50.62
2023-05-19T04:12:10.959Z,56.25
2023-05-19T04:13:11.028Z,56.25
2023-05-19T04:14:10.937Z,56.25
2023-05-19T04:15:10.924Z,61.88
2023-05-19T04:16:11.240Z,61.88
2023-05-19T04:17:10.889Z,61.88
2023-05-19T04:18:10.926Z,67.50
2023-05-19T04:19:18.031Z,67.50
2023-05-19T04:20:18.204Z,67.50
2023-05-19T04:21:17.860Z,67.50
2023-05-19T04:22:10.840Z,73.12
2023-05-19T04:23:18.154Z,73.12
2023-05-19T04:24:11.101Z,73.12
2023-05-19T04:25:10.817Z,78.75
2023-05-19T04:26:10.812Z,78.75
2023-05-19T04:27:10.794Z,78.75
2023-05-19T04:28:10.787Z,84.38
2023-05-19T04:29:10.780Z,84.38
2023-05-19T04:30:10.758Z,84.38
2023-05-19T04:31:10.849Z,90.00
2023-05-19T04:32:10.753Z,90.00
2023-05-19T04:33:10.744Z,90.00
2023-05-19T04:34:10.696Z,95.62
2023-05-19T04:35:10.692Z,95.62
2023-05-19T04:36:10.788Z,95.62
2023-05-19T04:37:10.980Z,95.62
2023-05-19T04:38:11.187Z,101.25
2023-05-19T04:39:10.658Z,101.25
2023-05-19T04:40:10.652Z,101.25
2023-05-19T04:41:10.713Z,106.88
2023-05-19T04:42:10.616Z,106.88
2023-05-19T04:43:10.599Z,101.25
2023-05-19T04:44:10.579Z,101.25
2023-05-19T04:45:10.578Z,106.88
2023-05-19T04:46:13.169Z,106.88
2023-05-19T04:47:10.884Z,106.88
2023-05-19T04:48:10.560Z,112.50
2023-05-19T04:49:10.579Z,112.50
2023-05-19T04:50:10.578Z,112.50
2023-05-19T04:51:10.587Z,112.50
2023-05-19T04:52:10.823Z,118.12
2023-05-19T04:53:12.396Z,118.12
2023-05-19T04:54:10.495Z,118.12
2023-05-19T04:55:10.505Z,118.12
2023-05-19T04:56:10.441Z,123.75
2023-05-19T04:57:10.494Z,123.75
2023-05-19T04:58:10.421Z,123.75
2023-05-19T04:59:10.415Z,123.75
2023-05-19T05:00:10.782Z,129.38
2023-05-19T05:01:10.404Z,129.38
2023-05-19T05:02:10.581Z,129.38
2023-05-19T05:03:10.481Z,135.00
2023-05-19T05:04:10.492Z,135.00
2023-05-19T05:05:10.371Z,135.00
2023-05-19T05:06:10.390Z,135.00
2023-05-19T05:07:10.341Z,135.00
2023-05-19T05:08:10.344Z,140.62
2023-05-19T05:09:10.333Z,140.62
2023-05-19T05:10:10.673Z,140.62
2023-05-19T05:11:10.287Z,140.62
2023-05-19T05:12:10.284Z,146.25
2023-05-19T05:13:11.802Z,146.25
2023-05-19T05:14:10.263Z,146.25
2023-05-19T05:15:10.240Z,146.25
2023-05-19T05:16:10.260Z,146.25
2023-05-19T05:17:10.552Z,146.25
2023-05-19T05:18:10.320Z,151.88
2023-05-19T05:19:10.229Z,151.88
2023-05-19T05:20:10.175Z,151.88
2023-05-19T05:21:10.180Z,151.88
2023-05-19T05:22:10.183Z,157.50
2023-05-19T05:23:10.156Z,157.50
2023-05-19T05:24:10.136Z,157.50
2023-05-19T05:25:10.162Z,157.50
2023-05-19T05:26:10.132Z,157.50
2023-05-19T05:27:10.258Z,163.12
2023-05-19T05:28:10.104Z,163.12
2023-05-19T05:29:10.101Z,163.12
2023-05-19T05:30:10.080Z,163.12
2023-05-19T05:31:12.226Z,163.12
2023-05-19T05:32:13.102Z,168.75
2023-05-19T05:33:10.541Z,168.75
2023-05-19T05:34:10.941Z,168.75
2023-05-19T05:35:10.047Z,168.75
2023-05-19T05:36:10.039Z,174.38
2023-05-19T05:37:10.132Z,174.38
2023-05-19T05:38:10.309Z,174.38
2023-05-19T05:39:09.960Z,174.38
2023-05-19T05:40:12.092Z,174.38
2023-05-19T05:41:10.880Z,174.38
2023-05-19T05:42:09.950Z,174.38
2023-05-19T05:43:10.235Z,174.38
2023-05-19T05:44:09.912Z,174.38
2023-05-19T05:45:09.882Z,174.38
2023-05-19T05:46:09.969Z,174.38
2023-05-19T05:47:09.874Z,174.38
2023-05-19T05:48:09.904Z,174.38
2023-05-19T05:49:09.867Z,174.38
2023-05-19T05:50:10.120Z,180.00
2023-05-19T05:51:09.853Z,180.00
2023-05-19T05:52:09.874Z,180.00
2023-05-19T05:53:10.111Z,180.00
2023-05-19T05:54:09.830Z,185.62
2023-05-19T05:55:09.820Z,185.62
2023-05-19T05:56:09.760Z,185.62
2023-05-19T05:57:09.786Z,191.25
2023-05-19T05:58:09.763Z,185.62
2023-05-19T05:59:09.852Z,191.25
2023-05-19T06:00:09.742Z,191.25
2023-05-19T06:01:09.718Z,191.25
2023-05-19T06:02:09.778Z,191.25
2023-05-19T06:03:10.035Z,191.25
2023-05-19T06:04:09.678Z,191.25
2023-05-19T06:05:09.749Z,191.25
2023-05-19T06:06:09.672Z,191.25
2023-05-19T06:07:09.671Z,196.88
2023-05-19T06:08:10.826Z,196.88
2023-05-19T06:09:09.627Z,191.25
2023-05-19T06:10:09.654Z,196.88
2023-05-19T06:11:09.592Z,196.88
2023-05-19T06:12:16.951Z,202.50
2023-05-19T06:13:16.923Z,202.50
2023-05-19T06:14:09.561Z,202.50
2023-05-19T06:15:16.870Z,202.50
2023-05-19T06:16:09.616Z,202.50
2023-05-19T06:17:09.520Z,202.50
2023-05-19T06:18:09.742Z,202.50
2023-05-19T06:19:09.555Z,202.50
2023-05-19T06:20:09.518Z,202.50
2023-05-19T06:21:09.469Z,202.50
2023-05-19T06:22:09.746Z,202.50
2023-05-19T06:23:09.465Z,208.12
2023-05-19T06:24:09.455Z,208.12
2023-05-19T06:25:09.444Z,208.12
2023-05-19T06:26:09.440Z,208.12
2023-05-19T06:27:09.406Z,208.12
2023-05-19T06:28:09.427Z,208.12
2023-05-19T06:29:09.373Z,208.12
2023-05-19T06:30:09.427Z,208.12
2023-05-19T06:31:09.402Z,213.75
2023-05-19T06:32:09.345Z,208.12
2023-05-19T06:33:09.745Z,213.75
2023-05-19T06:34:09.319Z,213.75
2023-05-19T06:35:09.322Z,213.75
2023-05-19T06:36:09.713Z,213.75
2023-05-19T06:37:09.315Z,213.75
2023-05-19T06:38:09.284Z,213.75
2023-05-19T06:39:09.252Z,213.75
2023-05-19T06:40:09.252Z,213.75
2023-05-19T06:41:09.239Z,219.38
2023-05-19T06:42:09.264Z,219.38
2023-05-19T06:43:09.224Z,219.38
2023-05-19T06:44:09.212Z,219.38
2023-05-19T06:45:09.263Z,219.38
2023-05-19T06:46:09.189Z,219.38
2023-05-19T06:47:09.229Z,219.38
2023-05-19T06:48:09.216Z,225.00
2023-05-19T06:49:09.162Z,225.00
2023-05-19T06:50:09.139Z,225.00
2023-05-19T06:51:09.124Z,225.00
2023-05-19T06:52:09.126Z,225.00
2023-05-19T06:53:09.134Z,230.62
2023-05-19T06:54:09.118Z,225.00
2023-05-19T06:55:11.816Z,225.00
2023-05-19T06:56:09.087Z,230.62
2023-05-19T06:57:09.046Z,230.62
2023-05-19T06:58:09.058Z,236.25
2023-05-19T06:59:09.036Z,236.25
2023-05-19T07:00:09.035Z,236.25
2023-05-19T07:01:09.059Z,230.62
2023-05-19T07:02:09.377Z,230.62
2023-05-19T07:03:11.841Z,230.62
2023-05-19T07:04:09.097Z,230.62
2023-05-19T07:05:09.352Z,230.62
2023-05-19T07:06:08.978Z,236.25
2023-05-19T07:07:08.928Z,236.25
2023-05-19T07:08:08.918Z,236.25
2023-05-19T07:09:08.940Z,236.25
2023-05-19T07:10:08.919Z,236.25
2023-05-19T07:11:08.934Z,236.25
2023-05-19T07:12:08.880Z,236.25
2023-05-19T07:13:08.877Z,236.25
2023-05-19T07:14:08.916Z,236.25
2023-05-19T07:15:08.905Z,236.25
2023-05-19T07:16:08.870Z,236.25
2023-05-19T07:17:08.843Z,236.25
2023-05-19T07:18:08.857Z,236.25
2023-05-19T07:19:10.635Z,236.25
2023-05-19T07:20:08.794Z,236.25
2023-05-19T07:21:08.771Z,236.25
2023-05-19T07:22:08.795Z,236.25
2023-05-19T07:23:08.759Z,236.25
2023-05-19T07:24:08.762Z,236.25
2023-05-19T07:25:09.093Z,241.88
2023-05-19T07:26:08.715Z,241.88
2023-05-19T07:27:08.716Z,241.88
2023-05-19T07:28:08.720Z,241.88
2023-05-19T07:29:08.724Z,241.88
2023-05-19T07:30:08.700Z,241.88
2023-05-19T07:31:08.670Z,247.50
2023-05-19T07:32:08.697Z,247.50
2023-05-19T07:33:08.707Z,247.50
2023-05-19T07:34:08.700Z,247.50
2023-05-19T07:35:08.654Z,253.12
2023-05-19T07:36:08.624Z,247.50
2023-05-19T07:37:08.598Z,247.50
2023-05-19T07:38:08.606Z,247.50
2023-05-19T07:39:08.620Z,247.50
2023-05-19T07:40:08.574Z,247.50
2023-05-19T07:41:08.626Z,247.50
2023-05-19T07:42:08.586Z,247.50
2023-05-19T07:43:08.619Z,247.50
2023-05-19T07:44:08.553Z,253.12
2023-05-19T07:45:08.502Z,253.12
2023-05-19T07:46:08.536Z,253.12
2023-05-19T07:47:08.533Z,253.12
2023-05-19T07:48:08.563Z,253.12
2023-05-19T07:49:08.490Z,253.12
2023-05-19T07:50:08.466Z,253.12
2023-05-19T07:51:08.453Z,253.12
2023-05-19T07:52:08.755Z,253.12
2023-05-19T07:53:08.422Z,253.12
2023-05-19T07:54:08.421Z,253.12
2023-05-19T07:55:08.445Z,253.12
2023-05-19T07:56:08.395Z,253.12
2023-05-19T07:57:08.401Z,258.75
2023-05-19T07:58:11.204Z,258.75
2023-05-19T07:59:08.362Z,258.75
2023-05-19T08:00:08.355Z,258.75
2023-05-19T08:01:08.327Z,281.25
2023-05-19T08:02:08.344Z,258.75
2023-05-19T08:03:08.409Z,258.75
2023-05-19T08:04:10.289Z,258.75
2023-05-19T08:05:16.625Z,258.75
2023-05-19T08:06:15.317Z,258.75
2023-05-19T08:07:08.279Z,258.75
2023-05-19T08:08:08.236Z,264.38
2023-05-19T08:09:08.235Z,264.38
2023-05-19T08:10:08.237Z,264.38
2023-05-19T08:11:08.208Z,264.38
2023-05-19T08:12:08.220Z,264.38
2023-05-19T08:13:08.590Z,264.38
2023-05-19T08:14:08.193Z,264.38
2023-05-19T08:15:08.194Z,270.00
2023-05-19T08:16:08.151Z,270.00
2023-05-19T08:17:08.195Z,270.00
2023-05-19T08:18:08.137Z,270.00
2023-05-19T08:19:08.153Z,270.00
2023-05-19T08:20:08.187Z,270.00
2023-05-19T08:21:08.112Z,270.00
2023-05-19T08:22:08.112Z,270.00
2023-05-19T08:23:08.077Z,270.00
2023-05-19T08:24:08.129Z,270.00
2023-05-19T08:25:08.050Z,270.00
2023-05-19T08:26:08.046Z,270.00
2023-05-19T08:27:08.024Z,275.62
2023-05-19T08:28:08.022Z,275.62
2023-05-19T08:29:08.005Z,275.62
2023-05-19T08:30:08.024Z,275.62
2023-05-19T08:31:07.994Z,275.62
2023-05-19T08:32:11.615Z,275.62
2023-05-19T08:33:08.002Z,275.62
2023-05-19T08:34:07.990Z,275.62
2023-05-19T08:35:07.927Z,275.62
2023-05-19T08:36:09.664Z,275.62
2023-05-19T08:37:07.898Z,281.25
2023-05-19T08:38:07.904Z,275.62
2023-05-19T08:39:07.889Z,275.62
2023-05-19T08:40:07.947Z,281.25
2023-05-19T08:41:07.891Z,281.25
2023-05-19T08:42:07.876Z,281.25
2023-05-19T08:43:07.839Z,281.25
2023-05-19T08:44:07.843Z,281.25
2023-05-19T08:45:07.882Z,281.25
2023-05-19T08:46:07.813Z,281.25
2023-05-19T08:47:07.992Z,286.88
2023-05-19T08:48:07.826Z,281.25
2023-05-19T08:49:07.786Z,281.25
2023-05-19T08:50:07.871Z,286.88
2023-05-19T08:51:07.791Z,292.50
2023-05-19T08:52:07.754Z,303.75
2023-05-19T08:53:15.101Z,303.75
2023-05-19T08:54:08.735Z,292.50
2023-05-19T08:55:07.728Z,292.50
2023-05-19T08:56:07.719Z,292.50
2023-05-19T08:57:07.733Z,292.50
2023-05-19T08:58:07.700Z,286.88
2023-05-19T08:59:11.592Z,286.88
2023-05-19T09:00:07.641Z,286.88
2023-05-19T09:01:07.729Z,286.88
2023-05-19T09:02:07.694Z,286.88
2023-05-19T09:04:07.713Z,281.25
2023-05-19T09:05:07.650Z,281.25
2023-05-19T09:06:07.728Z,275.62
2023-05-19T09:07:07.640Z,281.25
2023-05-19T09:08:07.528Z,281.25
2023-05-19T09:09:07.613Z,281.25
2023-05-19T09:10:07.509Z,292.50
2023-05-19T09:11:07.583Z,286.88
2023-05-19T09:12:07.516Z,281.25
2023-05-19T09:13:07.499Z,292.50
2023-05-19T09:14:07.484Z,286.88
2023-05-19T09:15:07.821Z,303.75
2023-05-19T09:16:07.498Z,298.12
2023-05-19T09:17:07.613Z,292.50
2023-05-19T09:18:07.748Z,303.75
2023-05-19T09:19:07.428Z,298.12
2023-05-19T09:20:07.496Z,303.75
2023-05-19T09:21:07.598Z,298.12
2023-05-19T09:22:07.462Z,309.38
2023-05-19T09:23:07.406Z,315.00
2023-05-19T09:24:07.379Z,303.75
2023-05-19T09:25:07.649Z,315.00
2023-05-19T09:26:07.888Z,309.38
2023-05-19T09:27:07.411Z,309.38
2023-05-19T09:28:07.368Z,303.75
2023-05-19T09:29:07.335Z,315.00
2023-05-19T09:30:07.307Z,303.75
2023-05-19T09:31:07.342Z,309.38
2023-05-19T09:32:09.068Z,320.62
2023-05-19T09:33:07.336Z,315.00
2023-05-19T09:34:07.279Z,320.62
2023-05-19T09:35:07.301Z,320.62
2023-05-19T09:36:07.234Z,315.00
2023-05-19T09:37:07.220Z,320.62
2023-05-19T09:38:07.236Z,326.25
2023-05-19T09:39:07.191Z,331.88
2023-05-19T09:40:07.229Z,331.88
2023-05-19T09:41:07.233Z,337.50
2023-05-19T09:42:07.495Z,337.50
2023-05-19T09:43:07.182Z,331.88
2023-05-19T09:44:07.165Z,331.88
2023-05-19T09:45:07.134Z,337.50
2023-05-19T09:46:07.310Z,337.50
2023-05-19T09:47:07.124Z,348.75
2023-05-19T09:48:07.116Z,343.12
2023-05-19T09:49:07.117Z,348.75
2023-05-19T09:50:07.083Z,360.00
2023-05-19T09:51:07.410Z,303.75
2023-05-19T09:52:07.098Z,371.25
2023-05-19T09:53:07.060Z,376.88
2023-05-19T09:54:07.020Z,382.50
2023-05-19T09:55:06.994Z,348.75
2023-05-19T09:56:07.012Z,264.38
2023-05-19T09:57:08.348Z,331.88
2023-05-19T09:58:14.026Z,292.50
2023-05-19T09:59:13.980Z,298.12
2023-05-19T10:00:07.015Z,326.25
2023-05-19T10:01:07.045Z,298.12
2023-05-19T10:02:06.964Z,303.75
2023-05-19T10:03:07.017Z,450.00
2023-05-19T10:04:06.905Z,444.38
2023-05-19T10:05:11.935Z,455.62
2023-05-19T10:06:07.879Z,450.00
2023-05-19T10:07:07.009Z,455.62
2023-05-19T10:08:06.862Z,461.25
2023-05-19T10:09:06.848Z,455.62
2023-05-19T10:10:07.188Z,450.00
2023-05-19T10:11:06.819Z,399.38
2023-05-19T10:12:06.862Z,388.12
2023-05-19T10:13:06.808Z,489.38
2023-05-19T10:14:06.801Z,540.00
2023-05-19T10:15:06.794Z,545.62
2023-05-19T10:16:06.824Z,540.00
2023-05-19T10:17:07.258Z,528.75
2023-05-19T10:18:07.178Z,517.50
2023-05-19T10:19:06.844Z,495.00
2023-05-19T10:20:06.714Z,326.25
2023-05-19T10:21:06.720Z,337.50
2023-05-19T10:22:06.691Z,393.75
2023-05-19T10:23:06.722Z,354.38
2023-05-19T10:24:06.681Z,450.00
2023-05-19T10:25:06.693Z,450.00
2023-05-19T10:26:07.059Z,450.00
2023-05-19T10:27:06.643Z,455.62
2023-05-19T10:28:06.657Z,303.75
2023-05-19T10:29:06.660Z,483.75
2023-05-19T10:30:08.254Z,438.75
2023-05-19T10:31:06.630Z,320.62
2023-05-19T10:32:06.661Z,320.62
2023-05-19T10:33:06.616Z,320.62
2023-05-19T10:34:07.366Z,315.00
2023-05-19T10:35:06.591Z,315.00
2023-05-19T10:36:06.561Z,315.00
2023-05-19T10:37:06.701Z,343.12
2023-05-19T10:38:06.513Z,523.12
2023-05-19T10:39:06.510Z,534.38
2023-05-19T10:40:08.461Z,545.62
2023-05-19T10:41:06.471Z,568.12
2023-05-19T10:42:06.470Z,573.75
2023-05-19T10:43:06.464Z,585.00
2023-05-19T10:44:06.435Z,590.62
2023-05-19T10:45:06.454Z,590.62
2023-05-19T10:46:06.408Z,596.25
2023-05-19T10:47:06.446Z,607.50
2023-05-19T10:48:06.416Z,607.50
2023-05-19T10:49:06.500Z,613.12
2023-05-19T10:50:06.388Z,613.12
2023-05-19T10:51:08.585Z,601.88
2023-05-19T10:52:06.587Z,573.75
2023-05-19T10:53:06.362Z,545.62
2023-05-19T10:54:06.394Z,528.75
2023-05-19T10:55:08.197Z,534.38
2023-05-19T10:56:06.320Z,427.50
2023-05-19T10:57:06.297Z,337.50
2023-05-19T10:58:06.296Z,371.25
2023-05-19T10:59:06.281Z,444.38
2023-05-19T11:00:06.257Z,517.50
2023-05-19T11:01:06.259Z,433.12
2023-05-19T11:02:06.248Z,523.12
2023-05-19T11:03:06.284Z,450.00
2023-05-19T11:04:06.235Z,540.00
2023-05-19T11:05:06.215Z,444.38
2023-05-19T11:06:06.195Z,562.50
2023-05-19T11:07:06.194Z,556.88
2023-05-19T11:08:06.209Z,545.62
2023-05-19T11:09:06.218Z,528.75
2023-05-19T11:10:06.212Z,511.88
2023-05-19T11:11:06.385Z,506.25
2023-05-19T11:12:06.197Z,511.88
2023-05-19T11:13:06.480Z,511.88
2023-05-19T11:14:06.132Z,495.00
2023-05-19T11:15:06.152Z,483.75
2023-05-19T11:16:06.111Z,478.12
2023-05-19T11:17:06.212Z,478.12
2023-05-19T11:18:06.107Z,483.75
2023-05-19T11:19:06.176Z,483.75
2023-05-19T11:20:06.030Z,495.00
2023-05-19T11:21:06.080Z,506.25
2023-05-19T11:22:06.076Z,511.88
2023-05-19T11:23:06.065Z,511.88
2023-05-19T11:24:06.098Z,511.88
2023-05-19T11:25:05.976Z,517.50
2023-05-19T11:26:06.015Z,517.50
2023-05-19T11:27:05.993Z,528.75
2023-05-19T11:28:05.946Z,540.00
2023-05-19T11:29:05.963Z,551.25
2023-05-19T11:30:05.920Z,562.50
2023-05-19T11:31:05.918Z,573.75
2023-05-19T11:32:06.026Z,579.38
2023-05-19T11:33:05.950Z,590.62
2023-05-19T11:34:05.941Z,579.38
2023-05-19T11:35:05.873Z,562.50
2023-05-19T11:36:05.903Z,551.25
2023-05-19T11:37:05.855Z,534.38
2023-05-19T11:38:05.847Z,511.88
2023-05-19T11:39:05.814Z,483.75
2023-05-19T11:40:05.844Z,472.50
2023-05-19T11:41:05.847Z,466.88
2023-05-19T11:42:05.817Z,466.88
2023-05-19T11:43:05.781Z,472.50
2023-05-19T11:44:05.809Z,478.12
2023-05-19T11:45:05.779Z,483.75
2023-05-19T11:46:13.164Z,478.12
2023-05-19T11:47:05.716Z,495.00
2023-05-19T11:48:05.727Z,495.00
2023-05-19T11:49:13.070Z,506.25
2023-05-19T11:50:05.698Z,523.12
2023-05-19T11:51:05.670Z,517.50
2023-05-19T11:52:12.696Z,517.50
2023-05-19T11:53:05.649Z,528.75
2023-05-19T11:54:05.677Z,540.00
2023-05-19T11:55:05.647Z,556.88
2023-05-19T11:56:05.633Z,568.12
2023-05-19T11:57:05.605Z,556.88
2023-05-19T11:58:06.107Z,556.88
2023-05-19T11:59:05.600Z,556.88
2023-05-19T12:00:05.584Z,545.62
2023-05-19T12:01:05.577Z,444.38
2023-05-19T12:02:05.559Z,500.62
2023-05-19T12:03:05.932Z,489.38
2023-05-19T12:04:05.666Z,466.88
2023-05-19T12:05:05.670Z,466.88
2023-05-19T12:06:05.569Z,466.88
2023-05-19T12:07:05.574Z,461.25
2023-05-19T12:08:05.512Z,461.25
2023-05-19T12:09:05.537Z,472.50
2023-05-19T12:10:05.464Z,483.75
2023-05-19T12:11:05.462Z,433.12
2023-05-19T12:12:05.450Z,438.75
2023-05-19T12:13:05.458Z,461.25
2023-05-19T12:14:05.421Z,466.88
2023-05-19T12:15:05.422Z,461.25
2023-05-19T12:16:05.550Z,450.00
2023-05-19T12:17:05.776Z,450.00
2023-05-19T12:18:05.410Z,444.38
2023-05-19T12:19:05.462Z,444.38
2023-05-19T12:20:05.365Z,455.62
2023-05-19T12:21:05.331Z,461.25
2023-05-19T12:22:05.321Z,461.25
2023-05-19T12:23:05.338Z,461.25
2023-05-19T12:24:05.311Z,455.62
2023-05-19T12:25:05.317Z,455.62
2023-05-19T12:26:05.324Z,455.62
2023-05-19T12:27:05.273Z,466.88
2023-05-19T12:28:05.383Z,461.25
2023-05-19T12:29:05.291Z,444.38
2023-05-19T12:30:05.223Z,478.12
2023-05-19T12:31:05.255Z,466.88
2023-05-19T12:32:05.269Z,461.25
2023-05-19T12:33:05.531Z,444.38
2023-05-19T12:34:05.184Z,438.75
2023-05-19T12:35:05.207Z,427.50
2023-05-19T12:36:05.182Z,416.25
2023-05-19T12:37:05.522Z,405.00
2023-05-19T12:38:05.336Z,399.38
2023-05-19T12:39:05.134Z,393.75
2023-05-19T12:40:05.212Z,393.75
2023-05-19T12:41:05.115Z,399.38
2023-05-19T12:42:05.212Z,405.00
2023-05-19T12:43:05.090Z,410.62
2023-05-19T12:44:05.391Z,410.62
2023-05-19T12:45:05.082Z,410.62